Time;durP1;ratioP1;P1;durP2;ratioP2;P2;SDS_P1;SDS_P2;PMS_P1;PMS_P2;Temp;Humidity;BMP_temperature;BMP_pressure;BME280_temperature;BME280_humidity;BME280_pressure;Samples;Min_cycle;Max_cycle;Signal;HPM_P1;HPM_P2
2022/10/10 00:02:18;;;;;;;10.43;3.20;;;;;;;7.27;100.00;101418.41;7397155;19;20435;-51
2022/10/10 00:04:47;;;;;;;6.27;2.90;;;;;;;7.16;100.00;101405.75;7397199;19;20413;-52
2022/10/10 00:07:17;;;;;;;7.83;2.90;;;;;;;7.11;100.00;101407.13;7395240;19;20402;-59
2022/10/10 00:09:47;;;;;;;7.93;3.07;;;;;;;7.18;100.00;101394.69;7396941;19;20391;-55
2022/10/10 00:12:19;;;;;;;7.93;3.00;;;;;;;7.23;100.00;101391.63;7393184;19;20937;-57
2022/10/10 00:14:48;;;;;;;6.43;2.93;;;;;;;7.22;100.00;101373.59;7397131;19;20918;-57
2022/10/10 00:17:17;;;;;;;7.00;2.77;;;;;;;7.24;100.00;101374.56;7394754;19;20422;-61
2022/10/10 00:19:47;;;;;;;7.23;3.10;;;;;;;7.23;100.00;101370.22;7396593;19;20411;-55
2022/10/10 00:22:17;;;;;;;6.47;2.33;;;;;;;7.14;100.00;101370.53;7390777;19;20411;-60
2022/10/10 00:24:46;;;;;;;6.30;2.70;;;;;;;7.25;100.00;101363.50;7396557;19;20418;-55
2022/10/10 00:27:18;;;;;;;6.70;2.60;;;;;;;7.31;100.00;101366.47;7394275;19;20410;-52
2022/10/10 00:29:48;;;;;;;9.53;2.97;;;;;;;7.45;100.00;101357.09;7396282;19;20476;-51
2022/10/10 00:32:17;;;;;;;9.23;2.43;;;;;;;7.56;100.00;101355.22;7392409;19;20415;-59
2022/10/10 00:34:46;;;;;;;6.67;2.80;;;;;;;7.54;100.00;101351.66;7394621;19;20387;-56
2022/10/10 00:37:16;;;;;;;11.13;3.20;;;;;;;7.47;100.00;101354.59;7397897;19;20384;-51
2022/10/10 00:39:45;;;;;;;7.37;3.10;;;;;;;7.46;100.00;101353.75;7399825;19;20379;-53
2022/10/10 00:42:16;;;;;;;11.33;4.33;;;;;;;7.48;100.00;101351.28;7395773;19;20450;-57
2022/10/10 00:44:48;;;;;;;11.20;2.57;;;;;;;7.43;100.00;101354.44;7396023;19;20414;-52
2022/10/10 00:47:18;;;;;;;9.10;3.63;;;;;;;7.46;100.00;101348.59;7394283;19;20408;-55
2022/10/10 00:49:47;;;;;;;7.17;3.10;;;;;;;7.52;100.00;101349.00;7395641;19;20420;-53
2022/10/10 00:52:16;;;;;;;13.90;2.93;;;;;;;7.45;100.00;101351.06;7392516;19;20434;-51
2022/10/10 00:54:46;;;;;;;7.00;2.70;;;;;;;7.63;100.00;101351.38;7393523;19;20399;-59
2022/10/10 00:57:16;;;;;;;4.47;1.90;;;;;;;7.27;100.00;101351.66;7393670;19;20388;-51
2022/10/10 00:59:48;;;;;;;5.77;2.17;;;;;;;7.12;100.00;101349.88;7395413;19;21032;-56
2022/10/10 01:02:17;;;;;;;6.20;2.90;;;;;;;7.26;100.00;101347.31;7394391;19;20424;-55
2022/10/10 01:04:47;;;;;;;21.27;10.10;;;;;;;7.18;100.00;101345.94;7395127;19;20897;-56
2022/10/10 01:07:19;;;;;;;11.23;3.97;;;;;;;7.37;100.00;101327.47;7383679;19;20433;-57
2022/10/10 01:09:48;;;;;;;12.93;5.40;;;;;;;7.42;100.00;101324.41;7394815;19;20410;-54
2022/10/10 01:12:23;;;;;;;10.00;2.40;;;;;;;7.47;100.00;101323.78;7393998;19;20419;-55
2022/10/10 01:15:01;;;;;;;6.53;2.37;;;;;;;7.52;100.00;101319.84;7397348;19;20396;-54
2022/10/10 01:17:35;;;;;;;7.63;2.90;;;;;;;7.53;100.00;101324.19;7396083;19;20426;-53
2022/10/10 01:20:39;;;;;;;8.63;3.83;;;;;;;7.42;100.00;101326.97;7398469;19;20396;-54
2022/10/10 01:23:24;;;;;;;5.00;2.50;;;;;;;7.38;100.00;101324.13;7394008;19;20455;-57
2022/10/10 01:26:03;;;;;;;11.83;2.47;;;;;;;7.45;100.00;101315.13;7398885;19;20438;-55
2022/10/10 01:28:41;;;;;;;8.90;2.60;;;;;;;7.27;100.00;101315.72;7395123;19;20469;-57
2022/10/10 01:31:13;;;;;;;7.37;2.93;;;;;;;7.46;100.00;101317.78;7394076;19;20945;-56
2022/10/10 01:33:48;;;;;;;9.10;2.87;;;;;;;7.35;100.00;101311.97;7391818;19;20428;-55
2022/10/10 01:36:24;;;;;;;10.83;2.13;;;;;;;7.30;100.00;101313.38;7394583;19;20728;-56
2022/10/10 01:38:59;;;;;;;5.80;2.63;;;;;;;7.30;100.00;101308.22;7390989;19;20414;-59
2022/10/10 01:41:33;;;;;;;9.53;2.37;;;;;;;7.05;100.00;101314.34;7391573;19;20754;-53
2022/10/10 01:44:05;;;;;;;7.20;2.50;;;;;;;7.08;100.00;101318.78;7391666;19;20429;-49
2022/10/10 01:46:35;;;;;;;5.50;2.77;;;;;;;7.12;100.00;101305.34;7394693;19;20741;-55
2022/10/10 01:49:05;;;;;;;9.43;2.30;;;;;;;7.11;100.00;101304.47;7391876;19;20434;-56
2022/10/10 01:51:46;;;;;;;12.63;2.70;;;;;;;7.26;100.00;101294.31;7393210;19;20531;-54
2022/10/10 01:54:24;;;;;;;8.97;2.60;;;;;;;7.23;100.00;101283.84;7389450;19;20498;-51
2022/10/10 01:57:01;;;;;;;14.40;3.10;;;;;;;7.20;100.00;101282.75;7398145;19;20383;-52
2022/10/10 01:59:41;;;;;;;6.57;2.73;;;;;;;7.11;100.00;101285.63;7395152;19;20430;-53
2022/10/10 02:02:16;;;;;;;7.87;2.73;;;;;;;6.94;100.00;101280.31;7393209;19;20419;-55
2022/10/10 02:04:51;;;;;;;5.90;2.60;;;;;;;6.93;100.00;101277.63;7396936;19;20414;-57
2022/10/10 02:07:24;;;;;;;11.73;4.20;;;;;;;7.10;100.00;101274.47;7395157;19;20937;-52
2022/10/10 02:09:54;;;;;;;7.03;2.80;;;;;;;7.06;100.00;101276.72;7397287;19;20390;-54
2022/10/10 02:12:24;;;;;;;8.00;2.40;;;;;;;7.13;100.00;101272.09;7392453;19;20415;-59
2022/10/10 02:14:58;;;;;;;12.40;3.60;;;;;;;7.25;100.00;101264.31;7396649;19;20407;-60
2022/10/10 02:17:28;;;;;;;8.43;2.70;;;;;;;7.26;100.00;101257.47;7388389;19;20433;-48
2022/10/10 02:20:00;;;;;;;8.10;2.90;;;;;;;7.04;100.00;101266.38;7397163;19;20395;-58
2022/10/10 02:22:31;;;;;;;7.03;3.00;;;;;;;6.96;100.00;101259.84;7389315;19;20964;-55
2022/10/10 02:25:01;;;;;;;12.83;2.90;;;;;;;6.94;100.00;101254.66;7394468;19;20410;-57
2022/10/10 02:27:33;;;;;;;5.63;3.10;;;;;;;6.83;100.00;101246.22;7390611;19;20399;-49
2022/10/10 02:30:07;;;;;;;7.00;3.47;;;;;;;6.81;100.00;101244.38;7392923;19;20403;-50
2022/10/10 02:32:40;;;;;;;9.33;2.97;;;;;;;6.73;100.00;101241.31;7390965;19;20457;-54
2022/10/10 02:35:13;;;;;;;11.83;3.30;;;;;;;6.67;100.00;101233.22;7395562;19;20414;-48
2022/10/10 02:37:43;;;;;;;9.20;3.00;;;;;;;6.64;100.00;101233.91;7393977;19;20451;-51
2022/10/10 02:40:16;;;;;;;6.20;2.77;;;;;;;6.68;100.00;101214.47;7396786;19;20421;-57
2022/10/10 02:42:46;;;;;;;6.37;3.20;;;;;;;6.54;100.00;101213.56;7391080;19;20469;-55
2022/10/10 02:45:20;;;;;;;9.03;2.70;;;;;;;6.46;100.00;101203.69;7396570;19;20410;-56
2022/10/10 02:47:49;;;;;;;13.97;2.83;;;;;;;6.53;100.00;101187.06;7393285;19;20455;-53
2022/10/10 02:50:18;;;;;;;9.93;2.80;;;;;;;6.48;100.00;101188.44;7396353;19;20405;-57
2022/10/10 02:52:48;;;;;;;8.60;3.10;;;;;;;6.43;100.00;101179.53;7397101;19;20480;-59
2022/10/10 02:55:18;;;;;;;5.50;2.70;;;;;;;6.41;100.00;101173.44;7401495;19;20400;-55
2022/10/10 02:57:47;;;;;;;9.33;3.23;;;;;;;6.53;100.00;101174.25;7399446;19;20474;-56
2022/10/10 03:00:20;;;;;;;5.90;2.70;;;;;;;6.57;100.00;101163.38;7403515;19;20425;-54
2022/10/10 03:02:49;;;;;;;7.70;4.30;;;;;;;6.52;100.00;101162.22;7398092;19;20463;-57
2022/10/10 03:05:19;;;;;;;6.63;3.20;;;;;;;6.45;100.00;101152.31;7403622;19;20799;-53
2022/10/10 03:07:49;;;;;;;10.13;3.57;;;;;;;6.35;100.00;101145.72;7400604;19;20439;-54
2022/10/10 03:10:18;;;;;;;8.63;2.70;;;;;;;6.36;100.00;101134.66;7403260;19;20934;-53
2022/10/10 03:12:48;;;;;;;8.40;3.60;;;;;;;6.36;100.00;101139.78;7397687;19;20456;-52
2022/10/10 03:15:20;;;;;;;6.80;3.40;;;;;;;6.40;100.00;101133.22;7402081;19;20393;-54
2022/10/10 03:17:50;;;;;;;7.30;3.40;;;;;;;6.33;100.00;101125.13;7399478;19;20437;-52
2022/10/10 03:20:19;;;;;;;7.47;2.90;;;;;;;6.41;100.00;101119.63;7403298;19;20417;-56
2022/10/10 03:22:49;;;;;;;9.37;3.50;;;;;;;6.49;100.00;101115.84;7397729;19;20454;-58
2022/10/10 03:25:19;;;;;;;8.07;3.60;;;;;;;6.67;100.00;101116.13;7402911;19;20751;-56
2022/10/10 03:27:48;;;;;;;8.43;3.30;;;;;;;6.51;100.00;101111.69;7399421;19;20418;-57
2022/10/10 03:30:20;;;;;;;12.67;3.30;;;;;;;6.57;100.00;101109.53;7402663;19;20931;-58
2022/10/10 03:32:50;;;;;;;9.30;3.30;;;;;;;6.58;100.00;101107.88;7397754;19;20456;-56
2022/10/10 03:35:20;;;;;;;16.00;3.50;;;;;;;6.66;100.00;101111.78;7401679;19;20397;-53
2022/10/10 03:37:49;;;;;;;11.97;3.90;;;;;;;6.46;100.00;101110.53;7399542;19;20429;-58
2022/10/10 03:40:18;;;;;;;7.13;3.30;;;;;;;6.45;100.00;101119.00;7401914;19;20387;-58
2022/10/10 03:42:48;;;;;;;8.43;3.50;;;;;;;6.51;100.00;101111.69;7396350;19;20821;-56
2022/10/10 03:45:20;;;;;;;8.77;3.33;;;;;;;6.55;100.00;101106.00;7402482;19;20404;-54
2022/10/10 03:47:50;;;;;;;8.60;3.60;;;;;;;6.44;100.00;101109.53;7398906;19;20437;-54
2022/10/10 03:50:19;;;;;;;11.80;4.50;;;;;;;6.56;100.00;101107.75;7402052;19;20389;-51
2022/10/10 03:52:49;;;;;;;9.30;3.57;;;;;;;6.41;100.00;101101.66;7396557;19;20449;-50
2022/10/10 03:55:19;;;;;;;13.03;4.60;;;;;;;6.56;100.00;101092.38;7400900;19;20399;-51
2022/10/10 03:57:48;;;;;;;12.60;4.30;;;;;;;6.41;100.00;101101.66;7398907;19;20773;-56
2022/10/10 04:00:21;;;;;;;11.37;3.47;;;;;;;6.43;100.00;101100.09;7401598;19;20753;-53
2022/10/10 04:02:52;;;;;;;8.00;3.57;;;;;;;6.41;100.00;101096.53;7393371;19;20878;-56
2022/10/10 04:05:22;;;;;;;7.83;3.40;;;;;;;6.34;100.00;101096.16;7400850;19;20405;-62
2022/10/10 04:07:51;;;;;;;9.00;3.73;;;;;;;6.47;100.00;101089.25;7398342;19;20438;-53
2022/10/10 04:10:20;;;;;;;10.43;4.40;;;;;;;6.40;100.00;101087.09;7400391;19;20393;-57
2022/10/10 04:12:50;;;;;;;10.93;3.73;;;;;;;6.33;100.00;101089.25;7395771;19;20444;-50
2022/10/10 04:15:22;;;;;;;6.00;3.40;;;;;;;6.17;100.00;101086.47;7401470;19;20409;-54
2022/10/10 04:17:52;;;;;;;9.23;4.10;;;;;;;6.23;100.00;101086.88;7398427;19;20427;-54
2022/10/10 04:20:22;;;;;;;7.57;3.57;;;;;;;6.38;100.00;101081.84;7400661;19;20389;-56
2022/10/10 04:22:51;;;;;;;8.23;3.73;;;;;;;6.46;100.00;101079.78;7396163;19;21010;-58
2022/10/10 04:25:21;;;;;;;11.17;4.27;;;;;;;6.52;100.00;101069.03;7400092;19;20399;-58
2022/10/10 04:27:51;;;;;;;8.30;3.90;;;;;;;6.41;100.00;101076.03;7398131;19;20437;-53
2022/10/10 04:30:26;;;;;;;14.63;4.30;;;;;;;6.43;100.00;101072.78;7400535;19;20393;-58
2022/10/10 04:32:55;;;;;;;9.00;3.97;;;;;;;6.51;100.00;101059.56;7395876;19;20483;-60
2022/10/10 04:35:24;;;;;;;9.97;4.90;;;;;;;6.41;100.00;101065.78;7399410;19;20394;-60
2022/10/10 04:37:54;;;;;;;7.47;4.00;;;;;;;6.35;100.00;101072.28;7397527;19;20442;-56
2022/10/10 04:40:24;;;;;;;33.53;12.20;;;;;;;7.09;100.00;101049.47;7400560;19;20399;-57
2022/10/10 04:42:56;;;;;;;10.47;5.63;;;;;;;7.56;100.00;101047.06;7395482;19;20788;-59
2022/10/10 04:45:28;;;;;;;34.07;7.33;;;;;;;7.35;100.00;101057.84;7399728;19;20402;-59
2022/10/10 04:48:02;;;;;;;22.40;11.37;;;;;;;7.27;100.00;101079.56;7397244;19;20431;-58
2022/10/10 04:50:31;;;;;;;42.13;18.63;;;;;;;7.62;100.00;101067.97;7399024;19;20396;-53
2022/10/10 04:53:01;;;;;;;31.37;13.97;;;;;;;7.34;100.00;101086.84;7394832;19;20577;-59
2022/10/10 04:55:30;;;;;;;71.20;35.73;;;;;;;7.57;100.00;101092.47;7398801;19;20396;-57
2022/10/10 04:57:59;;;;;;;29.17;14.43;;;;;;;7.12;100.00;101106.09;7388985;19;20964;-52
2022/10/10 05:00:31;;;;;;;25.77;14.63;;;;;;;7.29;100.00;101108.81;7391446;19;20395;-55
2022/10/10 05:03:01;;;;;;;32.87;16.43;;;;;;;7.92;100.00;101098.81;7387525;19;20399;-58
2022/10/10 05:05:30;;;;;;;21.90;12.50;;;;;;;7.88;100.00;101116.50;7391785;19;20391;-50
2022/10/10 05:08:00;;;;;;;10.73;4.23;;;;;;;7.39;100.00;101141.06;7389203;19;20403;-52
2022/10/10 05:10:29;;;;;;;12.10;6.03;;;;;;;6.82;100.00;101156.38;7391459;19;20387;-51
2022/10/10 05:12:58;;;;;;;9.23;4.57;;;;;;;7.36;100.00;101135.72;7388725;19;20427;-53
2022/10/10 05:15:28;;;;;;;14.33;4.80;;;;;;;7.37;100.00;101150.31;7392149;19;20380;-53
2022/10/10 05:18:00;;;;;;;11.60;4.43;;;;;;;7.45;100.00;101153.38;7388608;19;20895;-50
2022/10/10 05:20:29;;;;;;;7.60;3.90;;;;;;;7.24;100.00;101161.53;7393063;19;20405;-54
2022/10/10 05:22:59;;;;;;;8.50;3.93;;;;;;;7.41;100.00;101162.56;7389508;19;20432;-56
2022/10/10 05:25:28;;;;;;;13.00;4.90;;;;;;;7.68;100.00;101152.19;7393255;19;20396;-53
2022/10/10 05:27:58;;;;;;;8.13;3.87;;;;;;;8.12;100.00;101160.75;7390020;19;20435;-54
2022/10/10 05:30:27;;;;;;;6.40;3.60;;;;;;;7.97;100.00;101173.59;7393193;19;20415;-53
2022/10/10 05:32:59;;;;;;;16.27;4.60;;;;;;;7.59;100.00;101196.16;7389221;19;20411;-50
2022/10/10 05:35:29;;;;;;;11.67;4.00;;;;;;;7.64;100.00;101199.03;7392683;19;20375;-50
2022/10/10 05:37:58;;;;;;;10.40;3.90;;;;;;;7.29;100.00;101217.47;7390777;19;20421;-56
2022/10/10 05:40:28;;;;;;;12.23;3.83;;;;;;;6.69;100.00;101226.50;7392895;19;20403;-54
2022/10/10 05:42:57;;;;;;;9.57;3.80;;;;;;;6.28;100.00;101208.50;7389212;19;20753;-60
2022/10/10 05:45:27;;;;;;;9.67;4.60;;;;;;;6.13;100.00;101198.13;7393040;19;20916;-54
2022/10/10 05:47:56;;;;;;;7.80;4.20;;;;;;;6.06;100.00;101173.75;7392159;19;20439;-57
2022/10/10 05:50:33;;;;;;;7.50;3.87;;;;;;;5.90;100.00;101168.38;7392885;19;20413;-52
2022/10/10 05:53:03;;;;;;;11.33;4.70;;;;;;;5.77;100.00;101147.06;7389628;19;20438;-49
2022/10/10 05:55:32;;;;;;;12.93;4.43;;;;;;;5.70;100.00;101129.50;7393293;19;20399;-53
2022/10/10 05:58:02;;;;;;;8.13;3.97;;;;;;;5.72;100.00;101116.78;7390550;19;20767;-50
2022/10/10 06:00:31;;;;;;;13.37;4.77;;;;;;;5.73;100.00;101101.53;7392730;19;20435;-52
2022/10/10 06:03:01;;;;;;;14.97;4.40;;;;;;;5.70;100.00;101088.56;7389402;19;20406;-58
2022/10/10 06:05:33;;;;;;;9.53;4.30;;;;;;;5.67;100.00;101076.44;7393440;19;20420;-57
2022/10/10 06:08:02;;;;;;;9.33;4.67;;;;;;;5.65;100.00;101062.63;7390222;19;20403;-51
2022/10/10 06:10:41;;;;;;;10.73;4.33;;;;;;;5.61;100.00;101057.19;7392222;19;20923;-57
2022/10/10 06:13:10;;;;;;;14.10;5.03;;;;;;;5.58;100.00;101049.31;7390241;19;20987;-53
2022/10/10 06:15:40;;;;;;;9.30;4.50;;;;;;;5.58;100.00;101039.09;7393233;19;20419;-51
2022/10/10 06:18:10;;;;;;;10.93;4.90;;;;;;;5.63;100.00;101035.13;7390540;19;20417;-57
2022/10/10 06:20:42;;;;;;;13.07;4.80;;;;;;;5.60;100.00;101029.81;7392074;19;20385;-53
2022/10/10 06:23:12;;;;;;;11.57;4.47;;;;;;;5.52;100.00;101017.41;7391831;19;20437;-48
2022/10/10 06:25:41;;;;;;;9.37;4.60;;;;;;;5.55;100.00;101011.59;7390813;19;20385;-49
2022/10/10 06:28:11;;;;;;;10.60;4.57;;;;;;;5.54;100.00;101007.28;7389557;19;20416;-51
2022/10/10 06:30:42;;;;;;;13.10;5.03;;;;;;;5.61;100.00;101003.44;7392926;19;20743;-53
2022/10/10 06:33:11;;;;;;;9.50;5.43;;;;;;;5.63;100.00;101004.41;7389660;19;20770;-50
2022/10/10 06:35:44;;;;;;;9.90;4.80;;;;;;;5.64;100.00;101001.09;7392776;19;20403;-55
2022/10/10 06:38:14;;;;;;;11.63;4.80;;;;;;;5.69;100.00;100997.13;7389231;19;20419;-52
2022/10/10 06:40:44;;;;;;;10.50;4.40;;;;;;;5.71;100.00;100993.03;7392686;19;20412;-53
2022/10/10 06:43:15;;;;;;;11.37;4.73;;;;;;;5.73;100.00;100991.44;7389166;19;20748;-56
2022/10/10 06:45:46;;;;;;;8.20;5.17;;;;;;;5.77;100.00;100997.66;7392808;19;20411;-55
2022/10/10 06:48:17;;;;;;;9.30;4.17;;;;;;;5.89;100.00;100987.31;7389961;19;20415;-46
2022/10/10 06:50:57;;;;;;;39.43;18.00;;;;;;;6.84;100.00;100976.16;7391913;19;20382;-50
2022/10/10 06:53:26;;;;;;;27.80;12.73;;;;;;;6.88;100.00;100983.22;7388631;19;20424;-55
2022/10/10 06:55:56;;;;;;;68.90;35.63;;;;;;;6.91;100.00;100997.91;7395543;19;20435;-57
2022/10/10 06:58:27;;;;;;;16.10;5.60;;;;;;;6.86;100.00;101000.19;7388593;19;20414;-55
2022/10/10 07:00:59;;;;;;;20.03;10.63;;;;;;;6.99;100.00;101013.75;7390932;19;20378;-49
2022/10/10 07:03:29;;;;;;;9.40;5.27;;;;;;;6.79;100.00;101026.25;7390998;19;20411;-49
2022/10/10 07:06:02;;;;;;;18.90;9.33;;;;;;;6.84;100.00;101042.84;7391944;19;20386;-54
2022/10/10 07:08:33;;;;;;;7.53;3.93;;;;;;;6.62;100.00;101049.19;7389438;19;20761;-55
2022/10/10 07:11:02;;;;;;;13.30;4.70;;;;;;;6.58;100.00;101048.91;7390734;19;20398;-52
2022/10/10 07:13:32;;;;;;;15.43;4.47;;;;;;;6.54;100.00;101047.81;7389241;19;20444;-50
2022/10/10 07:16:02;;;;;;;10.80;5.37;;;;;;;6.58;100.00;101043.78;7391485;19;20384;-55
2022/10/10 07:18:32;;;;;;;11.67;4.60;;;;;;;6.62;100.00;101056.00;7388237;19;20779;-52
2022/10/10 07:21:04;;;;;;;11.87;4.50;;;;;;;6.70;100.00;101053.88;7390458;19;20394;-56
2022/10/10 07:23:35;;;;;;;10.73;4.50;;;;;;;6.71;100.00;101054.00;7388957;19;20437;-50
2022/10/10 07:26:07;;;;;;;11.80;4.23;;;;;;;6.79;100.00;101059.59;7391788;19;20386;-52
2022/10/10 07:28:37;;;;;;;10.87;4.30;;;;;;;6.86;100.00;101055.72;7389143;19;20647;-53
2022/10/10 07:31:08;;;;;;;14.23;4.47;;;;;;;6.93;100.00;101065.59;7390153;19;20910;-53
2022/10/10 07:33:39;;;;;;;9.00;4.20;;;;;;;7.00;100.00;101064.28;7388659;19;20442;-57
2022/10/10 07:36:16;;;;;;;8.13;4.33;;;;;;;7.08;100.00;101072.44;7390873;19;20389;-56
2022/10/10 07:38:45;;;;;;;12.10;4.90;;;;;;;7.15;100.00;101088.31;7394541;19;20846;-57
2022/10/10 07:41:15;;;;;;;12.20;4.70;;;;;;;7.27;100.00;101087.28;7395589;19;20430;-59
2022/10/10 07:43:44;;;;;;;31.57;13.27;;;;;;;7.34;100.00;101102.25;7397991;19;20472;-51
2022/10/10 07:46:17;;;;;;;15.07;5.10;;;;;;;7.46;100.00;101106.34;7399770;19;20416;-61
2022/10/10 07:48:47;;;;;;;9.30;3.97;;;;;;;7.49;100.00;101116.81;7395378;19;20429;-60
2022/10/10 07:51:19;;;;;;;12.17;4.83;;;;;;;7.57;100.00;101121.63;7399486;19;20460;-58
2022/10/10 07:53:49;;;;;;;8.50;3.50;;;;;;;7.63;100.00;101130.50;7394921;19;20415;-57
2022/10/10 07:56:18;;;;;;;8.30;3.87;;;;;;;7.73;100.00;101147.34;7397514;19;20402;-53
2022/10/10 07:58:47;;;;;;;11.83;4.23;;;;;;;7.82;100.00;101153.00;7394822;19;20772;-54
2022/10/10 08:01:17;;;;;;;14.27;4.00;;;;;;;7.87;100.00;101161.88;7396289;19;20947;-53
2022/10/10 08:03:47;;;;;;;4.90;2.90;;;;;;;7.94;100.00;101179.44;7393861;19;20403;-53
2022/10/10 08:06:19;;;;;;;11.67;4.20;;;;;;;8.03;100.00;101191.03;7397799;19;20406;-54
2022/10/10 08:08:50;;;;;;;13.50;4.20;;;;;;;8.06;100.00;101207.53;7393566;19;20419;-54
2022/10/10 08:11:21;;;;;;;11.00;3.67;;;;;;;8.14;100.00;101225.97;7396160;19;20433;-51
2022/10/10 08:13:51;;;;;;;9.77;4.13;;;;;;;8.22;100.00;101222.16;7395041;19;20790;-50
2022/10/10 08:16:21;;;;;;;7.53;3.93;;;;;;;8.32;100.00;101238.16;7399456;19;20395;-51
2022/10/10 08:18:50;;;;;;;8.63;3.90;;;;;;;8.40;100.00;101236.91;7394266;19;20431;-50
2022/10/10 08:21:23;;;;;;;11.40;4.17;;;;;;;8.37;100.00;101255.59;7400655;19;20447;-55
2022/10/10 08:23:52;;;;;;;10.50;3.50;;;;;;;8.45;100.00;101253.50;7394264;19;20429;-53
2022/10/10 08:26:21;;;;;;;13.30;4.03;;;;;;;8.54;100.00;101275.41;7396690;19;20391;-50
2022/10/10 08:28:51;;;;;;;9.73;4.20;;;;;;;8.61;100.00;101273.31;7393850;19;20986;-54
2022/10/10 08:31:22;;;;;;;9.53;4.23;;;;;;;8.70;100.00;101285.81;7395614;19;20399;-54
2022/10/10 08:33:53;;;;;;;8.27;3.67;;;;;;;8.77;100.00;101285.38;7393572;19;20415;-52
2022/10/10 08:36:26;;;;;;;7.70;4.20;;;;;;;8.88;100.00;101296.28;7396628;19;20925;-51
2022/10/10 08:38:58;;;;;;;8.80;3.83;;;;;;;8.97;100.00;101303.63;7393049;19;21052;-55
2022/10/10 08:41:34;;;;;;;7.00;3.90;;;;;;;9.03;100.00;101309.13;7395232;19;20395;-56
2022/10/10 08:44:08;;;;;;;15.63;3.90;;;;;;;9.17;100.00;101315.06;7393217;19;20419;-52
2022/10/10 08:46:41;;;;;;;9.40;4.20;;;;;;;9.20;100.00;101319.50;7396215;19;20376;-50
2022/10/10 08:49:19;;;;;;;10.23;3.90;;;;;;;9.29;100.00;101327.72;7395694;19;20447;-51
2022/10/10 08:51:58;;;;;;;9.80;4.00;;;;;;;9.37;100.00;101332.41;7394842;19;20418;-51
2022/10/10 08:54:28;;;;;;;7.93;3.23;;;;;;;9.53;100.00;101342.78;7392929;19;20406;-55
2022/10/10 08:57:01;;;;;;;7.83;3.00;;;;;;;9.58;100.00;101341.34;7397866;19;20837;-56
2022/10/10 08:59:33;;;;;;;13.83;5.50;;;;;;;9.72;100.00;101346.38;7391049;19;20951;-54
2022/10/10 09:02:21;;;;;;;5.90;3.40;;;;;;;9.79;100.00;101348.47;7393368;19;20419;-51
2022/10/10 09:04:54;;;;;;;10.43;4.40;;;;;;;9.89;100.00;101359.31;7395607;19;20957;-53
2022/10/10 09:07:35;;;;;;;9.47;4.50;;;;;;;9.94;100.00;101366.47;7393132;19;20391;-55
2022/10/10 09:10:11;;;;;;;9.47;3.90;;;;;;;10.12;100.00;101366.56;7395457;19;20418;-58
2022/10/10 09:12:46;;;;;;;12.00;5.30;;;;;;;10.17;100.00;101374.56;7391474;19;20406;-56
2022/10/10 09:15:19;;;;;;;12.40;3.70;;;;;;;10.17;100.00;101384.88;7395387;19;20763;-48
2022/10/10 09:17:54;;;;;;;7.63;2.80;;;;;;;10.19;100.00;101392.69;7392404;19;20434;-51
2022/10/10 09:20:34;;;;;;;10.50;3.13;;;;;;;10.31;100.00;101392.47;7395433;19;20402;-51
2022/10/10 09:23:13;;;;;;;6.77;2.80;;;;;;;10.51;100.00;101385.81;7391840;19;20946;-58
2022/10/10 09:25:44;;;;;;;9.27;3.30;;;;;;;10.59;100.00;101397.41;7395171;19;20422;-50
2022/10/10 09:28:17;;;;;;;12.17;3.50;;;;;;;10.63;100.00;101404.50;7392310;19;20415;-51
2022/10/10 09:30:50;;;;;;;5.90;3.00;;;;;;;10.65;100.00;101407.16;7394356;19;20400;-54
2022/10/10 09:33:28;;;;;;;5.80;3.40;;;;;;;10.71;100.00;101410.03;7391207;19;20403;-51
2022/10/10 09:35:59;;;;;;;6.50;3.13;;;;;;;10.82;100.00;101412.31;7397591;19;20422;-56
2022/10/10 09:38:38;;;;;;;13.70;4.03;;;;;;;11.04;100.00;101414.28;7391513;19;20774;-51
2022/10/10 09:41:14;;;;;;;8.83;4.23;;;;;;;11.13;100.00;101413.84;7393543;19;21071;-54
2022/10/10 09:43:44;;;;;;;11.43;3.40;;;;;;;11.22;100.00;101416.88;7388496;19;20415;-56
2022/10/10 09:46:13;;;;;;;19.10;3.77;;;;;;;11.35;100.00;101420.97;7395558;19;20409;-50
2022/10/10 09:48:44;;;;;;;8.90;3.10;;;;;;;11.45;100.00;101423.19;7390372;19;20435;-54
2022/10/10 09:51:16;;;;;;;8.03;3.00;;;;;;;11.64;100.00;101415.44;7390607;19;20417;-55
2022/10/10 09:53:49;;;;;;;8.90;3.10;;;;;;;11.78;100.00;101421.28;7388605;19;20439;-56
2022/10/10 09:56:21;;;;;;;11.10;4.30;;;;;;;11.88;100.00;101426.06;7392605;19;20384;-52
2022/10/10 09:58:53;;;;;;;8.73;3.17;;;;;;;11.85;100.00;101433.69;7387925;19;20436;-54
2022/10/10 10:01:24;;;;;;;7.93;3.70;;;;;;;11.89;100.00;101435.56;7388606;19;20411;-56
2022/10/10 10:04:11;;;;;;;7.83;3.57;;;;;;;12.02;100.00;101444.81;7388481;19;20412;-52
2022/10/10 10:07:07;;;;;;;5.37;2.60;;;;;;;11.91;100.00;101459.84;7392214;19;20408;-51
2022/10/10 10:09:39;;;;;;;5.80;3.00;;;;;;;11.89;100.00;101464.03;7391698;19;20419;-55
2022/10/10 10:12:09;;;;;;;10.70;2.90;;;;;;;12.06;100.00;101456.22;7392371;19;20409;-55
2022/10/10 10:14:39;;;;;;;5.00;3.17;;;;;;;11.99;100.00;101468.84;7391396;19;20776;-54
2022/10/10 10:17:10;;;;;;;10.90;3.80;;;;;;;12.19;100.00;101449.94;7389457;19;21026;-55
2022/10/10 10:19:42;;;;;;;6.60;3.13;;;;;;;12.25;100.00;101453.66;7389422;19;20386;-53
2022/10/10 10:22:28;;;;;;;7.60;3.40;;;;;;;12.31;100.00;101447.00;7387574;19;20442;-55
2022/10/10 10:25:01;;;;;;;8.33;3.87;;;;;;;12.34;100.00;101449.72;7391311;19;21317;-49
2022/10/10 10:27:30;;;;;;;13.90;5.27;;;;;;;12.38;100.00;101441.28;7388259;19;20404;-59
2022/10/10 10:30:00;;;;;;;6.60;2.70;;;;;;;12.32;100.00;101446.19;7391792;19;20386;-52
2022/10/10 10:32:45;;;;;;;8.57;2.80;;;;;;;12.46;100.00;101442.50;7387961;19;20405;-53
2022/10/10 10:35:22;;;;;;;6.83;2.77;;;;;;;12.41;100.00;101439.72;7391981;19;20425;-52
2022/10/10 10:38:09;;;;;;;11.73;3.60;;;;;;;12.71;100.00;101435.84;7389900;19;20403;-57
2022/10/10 10:40:43;;;;;;;7.57;3.20;;;;;;;12.80;100.00;101440.53;7391914;19;20388;-56
2022/10/10 10:43:29;;;;;;;6.30;2.97;;;;;;;12.94;100.00;101446.31;7389697;19;20429;-53
2022/10/10 10:46:06;;;;;;;8.33;3.00;;;;;;;12.98;100.00;101448.25;7392103;19;20377;-55
2022/10/10 10:48:42;;;;;;;7.40;3.10;;;;;;;12.98;100.00;101455.09;7389732;19;20411;-54
2022/10/10 10:51:22;;;;;;;8.30;3.10;;;;;;;13.28;100.00;101434.78;7391216;19;20407;-59
2022/10/10 10:53:59;;;;;;;8.40;3.40;;;;;;;13.52;100.00;101440.97;7387516;19;20785;-60
2022/10/10 10:56:35;;;;;;;9.57;3.47;;;;;;;13.55;100.00;101448.84;7394503;19;20416;-51
2022/10/10 10:59:14;;;;;;;8.03;3.17;;;;;;;13.48;100.00;101442.50;7388712;19;20444;-56
2022/10/10 11:02:16;;;;;;;9.37;3.63;;;;;;;13.56;100.00;101446.34;7389750;19;20434;-56
2022/10/10 11:05:35;;;;;;;8.20;3.87;;;;;;;13.84;100.00;101455.19;7391876;19;20474;-54
2022/10/10 11:08:26;;;;;;;9.13;2.30;;;;;;;13.79;100.00;101471.41;7386626;19;20413;-54
2022/10/10 11:11:06;;;;;;;7.40;3.33;;;;;;;13.98;100.00;101470.41;7392388;19;20409;-57
2022/10/10 11:13:41;;;;;;;10.07;3.07;;;;;;;13.98;100.00;101473.00;7396466;19;20526;-55
2022/10/10 11:16:14;;;;;;;14.23;6.43;;;;;;;14.00;100.00;101461.88;7399331;19;20415;-51
2022/10/10 11:19:12;;;;;;;15.30;6.70;;;;;;;14.17;100.00;101456.44;7395017;19;20533;-56
2022/10/10 11:21:45;;;;;;;8.93;3.00;;;;;;;14.49;100.00;101461.97;7397303;19;20442;-54
2022/10/10 11:24:17;;;;;;;13.23;3.67;;;;;;;14.61;100.00;101448.53;7396164;19;20423;-52
2022/10/10 11:26:49;;;;;;;10.53;4.00;;;;;;;14.69;100.00;101438.44;7402279;19;20395;-53
2022/10/10 11:29:23;;;;;;;7.40;3.37;;;;;;;14.68;100.00;101437.53;7396093;19;20419;-55
2022/10/10 11:31:56;;;;;;;10.13;4.17;;;;;;;14.53;100.00;101434.41;7396749;19;20427;-57
2022/10/10 11:34:29;;;;;;;11.60;2.83;;;;;;;14.52;100.00;101430.03;7396277;19;20415;-54
2022/10/10 11:37:03;;;;;;;10.10;3.10;;;;;;;14.77;100.00;101429.22;7401055;19;20392;-57
2022/10/10 11:39:38;;;;;;;14.10;3.23;;;;;;;14.95;100.00;101423.81;7396740;19;20431;-54
2022/10/10 11:42:10;;;;;;;13.80;4.07;;;;;;;14.98;100.00;101412.63;7393157;19;20440;-56
2022/10/10 11:44:45;;;;;;;10.27;3.40;;;;;;;14.99;100.00;101412.66;7398029;19;20389;-53